sensor_id;sensor_type;location;lat;lon;timestamp;P1;durP1;ratioP1;P2;durP2;ratioP2
7193;SDS011;3638;48.820;9.244;2022-08-05T00:02:10;6.32;;;4.55;;
7193;SDS011;3638;48.820;9.244;2022-08-05T00:04:38;6.53;;;4.80;;
7193;SDS011;3638;48.820;9.244;2022-08-05T00:07:06;6.50;;;4.68;;
7193;SDS011;3638;48.820;9.244;2022-08-05T00:09:33;6.82;;;5.00;;
7193;SDS011;3638;48.820;9.244;2022-08-05T00:12:01;9.15;;;5.00;;
7193;SDS011;3638;48.820;9.244;2022-08-05T00:14:28;7.20;;;5.20;;
7193;SDS011;3638;48.820;9.244;2022-08-05T00:16:56;5.90;;;4.82;;
7193;SDS011;3638;48.820;9.244;2022-08-05T00:19:23;7.10;;;5.05;;
7193;SDS011;3638;48.820;9.244;2022-08-05T00:21:50;6.70;;;5.30;;
7193;SDS011;3638;48.820;9.244;2022-08-05T00:24:19;6.22;;;5.28;;
7193;SDS011;3638;48.820;9.244;2022-08-05T00:26:46;6.68;;;4.78;;
7193;SDS011;3638;48.820;9.244;2022-08-05T00:29:13;6.45;;;5.30;;
7193;SDS011;3638;48.820;9.244;2022-08-05T00:31:40;6.65;;;5.28;;
7193;SDS011;3638;48.820;9.244;2022-08-05T00:34:07;7.38;;;5.40;;
7193;SDS011;3638;48.820;9.244;2022-08-05T00:36:35;8.00;;;5.80;;
7193;SDS011;3638;48.820;9.244;2022-08-05T00:39:02;7.05;;;5.55;;
7193;SDS011;3638;48.820;9.244;2022-08-05T00:41:31;8.05;;;5.40;;
7193;SDS011;3638;48.820;9.244;2022-08-05T00:43:59;8.95;;;5.85;;
7193;SDS011;3638;48.820;9.244;2022-08-05T00:46:27;7.30;;;6.28;;
7193;SDS011;3638;48.820;9.244;2022-08-05T00:48:54;10.15;;;6.82;;
7193;SDS011;3638;48.820;9.244;2022-08-05T00:51:23;10.18;;;6.50;;
7193;SDS011;3638;48.820;9.244;2022-08-05T00:53:50;8.38;;;7.00;;
7193;SDS011;3638;48.820;9.244;2022-08-05T00:56:17;7.68;;;6.88;;
7193;SDS011;3638;48.820;9.244;2022-08-05T00:58:46;7.78;;;6.95;;
7193;SDS011;3638;48.820;9.244;2022-08-05T01:01:13;7.90;;;6.80;;
7193;SDS011;3638;48.820;9.244;2022-08-05T01:03:40;9.02;;;6.60;;
7193;SDS011;3638;48.820;9.244;2022-08-05T01:06:08;10.60;;;6.72;;
7193;SDS011;3638;48.820;9.244;2022-08-05T01:08:35;7.10;;;5.07;;
7193;SDS011;3638;48.820;9.244;2022-08-05T01:11:04;5.45;;;4.80;;
7193;SDS011;3638;48.820;9.244;2022-08-05T01:13:39;6.22;;;4.20;;
7193;SDS011;3638;48.820;9.244;2022-08-05T01:16:17;3.58;;;3.20;;
7193;SDS011;3638;48.820;9.244;2022-08-05T01:18:51;5.20;;;3.50;;
7193;SDS011;3638;48.820;9.244;2022-08-05T01:21:40;5.55;;;3.10;;
7193;SDS011;3638;48.820;9.244;2022-08-05T01:24:25;3.78;;;2.97;;
7193;SDS011;3638;48.820;9.244;2022-08-05T01:27:12;6.50;;;3.13;;
7193;SDS011;3638;48.820;9.244;2022-08-05T01:29:56;5.07;;;2.63;;
7193;SDS011;3638;48.820;9.244;2022-08-05T01:32:29;5.57;;;2.90;;
7193;SDS011;3638;48.820;9.244;2022-08-05T01:35:01;4.85;;;3.00;;
7193;SDS011;3638;48.820;9.244;2022-08-05T01:37:34;4.82;;;2.53;;
7193;SDS011;3638;48.820;9.244;2022-08-05T01:40:06;6.30;;;3.00;;
7193;SDS011;3638;48.820;9.244;2022-08-05T01:42:35;3.78;;;2.63;;
7193;SDS011;3638;48.820;9.244;2022-08-05T01:45:05;3.72;;;2.78;;
7193;SDS011;3638;48.820;9.244;2022-08-05T01:47:34;5.22;;;2.78;;
7193;SDS011;3638;48.820;9.244;2022-08-05T01:50:03;3.70;;;2.67;;
7193;SDS011;3638;48.820;9.244;2022-08-05T01:52:33;3.67;;;2.70;;
7193;SDS011;3638;48.820;9.244;2022-08-05T01:55:04;3.95;;;2.70;;
7193;SDS011;3638;48.820;9.244;2022-08-05T01:57:37;3.75;;;2.50;;
7193;SDS011;3638;48.820;9.244;2022-08-05T02:00:08;6.45;;;2.40;;
7193;SDS011;3638;48.820;9.244;2022-08-05T02:02:38;4.65;;;2.88;;
7193;SDS011;3638;48.820;9.244;2022-08-05T02:05:11;4.28;;;2.50;;
7193;SDS011;3638;48.820;9.244;2022-08-05T02:07:39;3.15;;;2.55;;
7193;SDS011;3638;48.820;9.244;2022-08-05T02:10:08;5.70;;;2.80;;
7193;SDS011;3638;48.820;9.244;2022-08-05T02:12:37;8.43;;;3.00;;
7193;SDS011;3638;48.820;9.244;2022-08-05T02:15:16;3.78;;;2.72;;
7193;SDS011;3638;48.820;9.244;2022-08-05T02:17:50;6.10;;;2.63;;
7193;SDS011;3638;48.820;9.244;2022-08-05T02:20:24;2.95;;;2.53;;
7193;SDS011;3638;48.820;9.244;2022-08-05T02:22:57;5.15;;;2.80;;
7193;SDS011;3638;48.820;9.244;2022-08-05T02:25:27;3.95;;;2.60;;
7193;SDS011;3638;48.820;9.244;2022-08-05T02:27:58;6.80;;;2.83;;
7193;SDS011;3638;48.820;9.244;2022-08-05T02:30:30;4.55;;;2.70;;
7193;SDS011;3638;48.820;9.244;2022-08-05T02:33:08;3.58;;;2.60;;
7193;SDS011;3638;48.820;9.244;2022-08-05T02:35:36;3.50;;;2.70;;
7193;SDS011;3638;48.820;9.244;2022-08-05T02:38:06;4.22;;;2.97;;
7193;SDS011;3638;48.820;9.244;2022-08-05T02:40:35;4.63;;;2.95;;
7193;SDS011;3638;48.820;9.244;2022-08-05T02:43:07;3.47;;;2.60;;
7193;SDS011;3638;48.820;9.244;2022-08-05T02:45:37;5.00;;;3.20;;
7193;SDS011;3638;48.820;9.244;2022-08-05T02:48:06;3.10;;;2.38;;
7193;SDS011;3638;48.820;9.244;2022-08-05T02:50:35;5.78;;;2.67;;
7193;SDS011;3638;48.820;9.244;2022-08-05T02:53:03;4.15;;;2.55;;
7193;SDS011;3638;48.820;9.244;2022-08-05T02:55:31;5.97;;;2.70;;
7193;SDS011;3638;48.820;9.244;2022-08-05T02:57:58;5.55;;;2.80;;
7193;SDS011;3638;48.820;9.244;2022-08-05T03:00:28;3.55;;;3.00;;
7193;SDS011;3638;48.820;9.244;2022-08-05T03:02:57;4.15;;;2.65;;
7193;SDS011;3638;48.820;9.244;2022-08-05T03:05:25;7.55;;;2.88;;
7193;SDS011;3638;48.820;9.244;2022-08-05T03:07:53;3.00;;;2.67;;
7193;SDS011;3638;48.820;9.244;2022-08-05T03:10:20;2.92;;;2.63;;
7193;SDS011;3638;48.820;9.244;2022-08-05T03:12:49;4.93;;;2.65;;
7193;SDS011;3638;48.820;9.244;2022-08-05T03:15:17;5.68;;;3.00;;
7193;SDS011;3638;48.820;9.244;2022-08-05T03:17:45;3.58;;;2.97;;
7193;SDS011;3638;48.820;9.244;2022-08-05T03:20:13;3.13;;;2.60;;
7193;SDS011;3638;48.820;9.244;2022-08-05T03:22:40;5.03;;;2.70;;
7193;SDS011;3638;48.820;9.244;2022-08-05T03:25:08;3.85;;;3.08;;
7193;SDS011;3638;48.820;9.244;2022-08-05T03:27:36;5.70;;;2.90;;
7193;SDS011;3638;48.820;9.244;2022-08-05T03:30:03;3.85;;;2.60;;
7193;SDS011;3638;48.820;9.244;2022-08-05T03:32:32;4.65;;;2.55;;
7193;SDS011;3638;48.820;9.244;2022-08-05T03:34:59;6.18;;;3.30;;
7193;SDS011;3638;48.820;9.244;2022-08-05T03:37:28;3.50;;;2.88;;
7193;SDS011;3638;48.820;9.244;2022-08-05T03:39:57;7.00;;;3.28;;
7193;SDS011;3638;48.820;9.244;2022-08-05T03:42:25;5.80;;;2.97;;
7193;SDS011;3638;48.820;9.244;2022-08-05T03:44:52;3.35;;;2.88;;
7193;SDS011;3638;48.820;9.244;2022-08-05T03:47:19;6.97;;;2.85;;
7193;SDS011;3638;48.820;9.244;2022-08-05T03:49:46;3.03;;;2.65;;
7193;SDS011;3638;48.820;9.244;2022-08-05T03:52:16;5.00;;;3.13;;
7193;SDS011;3638;48.820;9.244;2022-08-05T03:54:51;6.25;;;2.97;;
7193;SDS011;3638;48.820;9.244;2022-08-05T03:57:21;9.18;;;3.17;;
7193;SDS011;3638;48.820;9.244;2022-08-05T03:59:54;7.07;;;3.05;;
7193;SDS011;3638;48.820;9.244;2022-08-05T04:02:25;5.95;;;3.40;;
7193;SDS011;3638;48.820;9.244;2022-08-05T04:04:57;5.32;;;3.50;;
7193;SDS011;3638;48.820;9.244;2022-08-05T04:07:24;7.10;;;3.60;;
7193;SDS011;3638;48.820;9.244;2022-08-05T04:09:53;5.05;;;3.30;;
7193;SDS011;3638;48.820;9.244;2022-08-05T04:12:21;7.07;;;3.25;;
7193;SDS011;3638;48.820;9.244;2022-08-05T04:14:48;9.93;;;3.72;;
7193;SDS011;3638;48.820;9.244;2022-08-05T04:17:16;4.20;;;3.38;;
7193;SDS011;3638;48.820;9.244;2022-08-05T04:19:44;8.00;;;3.45;;
7193;SDS011;3638;48.820;9.244;2022-08-05T04:22:12;5.30;;;3.20;;
7193;SDS011;3638;48.820;9.244;2022-08-05T04:24:40;3.97;;;2.88;;
7193;SDS011;3638;48.820;9.244;2022-08-05T04:27:10;5.85;;;3.42;;
7193;SDS011;3638;48.820;9.244;2022-08-05T04:29:38;5.53;;;3.30;;
7193;SDS011;3638;48.820;9.244;2022-08-05T04:32:06;6.97;;;3.40;;
7193;SDS011;3638;48.820;9.244;2022-08-05T04:34:33;8.73;;;3.40;;
7193;SDS011;3638;48.820;9.244;2022-08-05T04:37:00;7.43;;;3.35;;
7193;SDS011;3638;48.820;9.244;2022-08-05T04:39:28;6.10;;;2.92;;
7193;SDS011;3638;48.820;9.244;2022-08-05T04:41:55;3.85;;;3.17;;
7193;SDS011;3638;48.820;9.244;2022-08-05T04:44:23;6.50;;;3.38;;
7193;SDS011;3638;48.820;9.244;2022-08-05T04:46:50;5.75;;;3.58;;
7193;SDS011;3638;48.820;9.244;2022-08-05T04:49:17;7.78;;;3.70;;
7193;SDS011;3638;48.820;9.244;2022-08-05T04:51:44;10.35;;;4.40;;
7193;SDS011;3638;48.820;9.244;2022-08-05T04:54:11;6.15;;;3.55;;
7193;SDS011;3638;48.820;9.244;2022-08-05T04:56:39;6.15;;;3.85;;
7193;SDS011;3638;48.820;9.244;2022-08-05T04:59:05;6.85;;;4.22;;
7193;SDS011;3638;48.820;9.244;2022-08-05T05:01:34;10.25;;;4.20;;
7193;SDS011;3638;48.820;9.244;2022-08-05T05:04:01;6.43;;;3.75;;
7193;SDS011;3638;48.820;9.244;2022-08-05T05:06:28;8.52;;;3.70;;
7193;SDS011;3638;48.820;9.244;2022-08-05T05:08:55;4.13;;;3.40;;
7193;SDS011;3638;48.820;9.244;2022-08-05T05:11:22;7.07;;;3.78;;
7193;SDS011;3638;48.820;9.244;2022-08-05T05:13:49;6.43;;;3.53;;
7193;SDS011;3638;48.820;9.244;2022-08-05T05:16:16;5.90;;;3.55;;
7193;SDS011;3638;48.820;9.244;2022-08-05T05:18:44;4.70;;;4.10;;
7193;SDS011;3638;48.820;9.244;2022-08-05T05:21:11;7.18;;;3.33;;
7193;SDS011;3638;48.820;9.244;2022-08-05T05:23:38;8.68;;;4.03;;
7193;SDS011;3638;48.820;9.244;2022-08-05T05:26:05;8.75;;;3.50;;
7193;SDS011;3638;48.820;9.244;2022-08-05T05:28:32;8.52;;;3.88;;
7193;SDS011;3638;48.820;9.244;2022-08-05T05:30:59;9.43;;;3.67;;
7193;SDS011;3638;48.820;9.244;2022-08-05T05:33:26;6.65;;;3.90;;
7193;SDS011;3638;48.820;9.244;2022-08-05T05:35:55;4.88;;;3.53;;
7193;SDS011;3638;48.820;9.244;2022-08-05T05:38:22;7.35;;;4.03;;
7193;SDS011;3638;48.820;9.244;2022-08-05T05:40:49;9.38;;;4.50;;
7193;SDS011;3638;48.820;9.244;2022-08-05T05:43:16;7.10;;;3.83;;
7193;SDS011;3638;48.820;9.244;2022-08-05T05:45:44;8.10;;;4.20;;
7193;SDS011;3638;48.820;9.244;2022-08-05T05:48:11;7.35;;;4.40;;
7193;SDS011;3638;48.820;9.244;2022-08-05T05:50:39;9.82;;;4.15;;
7193;SDS011;3638;48.820;9.244;2022-08-05T05:53:08;5.53;;;3.90;;
7193;SDS011;3638;48.820;9.244;2022-08-05T05:55:35;11.13;;;4.55;;
7193;SDS011;3638;48.820;9.244;2022-08-05T05:58:02;8.25;;;4.10;;
7193;SDS011;3638;48.820;9.244;2022-08-05T06:00:29;5.88;;;3.85;;
7193;SDS011;3638;48.820;9.244;2022-08-05T06:02:56;10.52;;;3.80;;
7193;SDS011;3638;48.820;9.244;2022-08-05T06:05:24;9.27;;;3.92;;
7193;SDS011;3638;48.820;9.244;2022-08-05T06:07:51;9.00;;;3.72;;
7193;SDS011;3638;48.820;9.244;2022-08-05T06:10:20;6.60;;;3.42;;
7193;SDS011;3638;48.820;9.244;2022-08-05T06:12:47;6.40;;;3.65;;
7193;SDS011;3638;48.820;9.244;2022-08-05T06:15:13;3.33;;;3.00;;
7193;SDS011;3638;48.820;9.244;2022-08-05T06:17:41;4.97;;;3.20;;
7193;SDS011;3638;48.820;9.244;2022-08-05T06:20:08;7.10;;;3.67;;
7193;SDS011;3638;48.820;9.244;2022-08-05T06:22:35;6.13;;;3.72;;
7193;SDS011;3638;48.820;9.244;2022-08-05T06:25:03;4.35;;;3.55;;
7193;SDS011;3638;48.820;9.244;2022-08-05T06:27:33;7.78;;;3.85;;
7193;SDS011;3638;48.820;9.244;2022-08-05T06:30:01;5.95;;;3.53;;
7193;SDS011;3638;48.820;9.244;2022-08-05T06:32:28;6.63;;;3.60;;
7193;SDS011;3638;48.820;9.244;2022-08-05T06:34:55;4.80;;;2.95;;
7193;SDS011;3638;48.820;9.244;2022-08-05T06:37:23;3.78;;;3.20;;
7193;SDS011;3638;48.820;9.244;2022-08-05T06:39:51;5.05;;;3.20;;
7193;SDS011;3638;48.820;9.244;2022-08-05T06:42:18;3.50;;;3.20;;
7193;SDS011;3638;48.820;9.244;2022-08-05T06:44:46;4.30;;;2.85;;
7193;SDS011;3638;48.820;9.244;2022-08-05T06:47:13;5.10;;;2.97;;
7193;SDS011;3638;48.820;9.244;2022-08-05T06:49:40;5.38;;;3.20;;
7193;SDS011;3638;48.820;9.244;2022-08-05T06:52:07;3.65;;;2.80;;
7193;SDS011;3638;48.820;9.244;2022-08-05T06:54:34;6.20;;;2.85;;
7193;SDS011;3638;48.820;9.244;2022-08-05T06:57:02;4.55;;;3.17;;
7193;SDS011;3638;48.820;9.244;2022-08-05T06:59:29;5.65;;;3.33;;
7193;SDS011;3638;48.820;9.244;2022-08-05T07:01:58;4.18;;;3.50;;
7193;SDS011;3638;48.820;9.244;2022-08-05T07:04:25;7.57;;;3.22;;
7193;SDS011;3638;48.820;9.244;2022-08-05T07:06:51;4.45;;;2.95;;
7193;SDS011;3638;48.820;9.244;2022-08-05T07:09:18;4.57;;;3.30;;
7193;SDS011;3638;48.820;9.244;2022-08-05T07:11:45;4.00;;;3.05;;
7193;SDS011;3638;48.820;9.244;2022-08-05T07:14:13;5.25;;;2.90;;
7193;SDS011;3638;48.820;9.244;2022-08-05T07:16:59;6.43;;;3.30;;
7193;SDS011;3638;48.820;9.244;2022-08-05T07:19:26;6.55;;;3.20;;
7193;SDS011;3638;48.820;9.244;2022-08-05T07:21:54;3.95;;;3.22;;
7193;SDS011;3638;48.820;9.244;2022-08-05T07:24:22;6.10;;;2.97;;
7193;SDS011;3638;48.820;9.244;2022-08-05T07:26:49;6.18;;;3.20;;
7193;SDS011;3638;48.820;9.244;2022-08-05T07:29:17;7.30;;;3.47;;
7193;SDS011;3638;48.820;9.244;2022-08-05T07:31:44;3.55;;;2.88;;
7193;SDS011;3638;48.820;9.244;2022-08-05T07:34:13;5.25;;;2.83;;
7193;SDS011;3638;48.820;9.244;2022-08-05T07:36:40;4.47;;;2.60;;
7193;SDS011;3638;48.820;9.244;2022-08-05T07:39:07;5.68;;;2.90;;
7193;SDS011;3638;48.820;9.244;2022-08-05T07:41:35;5.97;;;2.88;;
7193;SDS011;3638;48.820;9.244;2022-08-05T07:44:03;6.82;;;2.85;;
7193;SDS011;3638;48.820;9.244;2022-08-05T07:46:32;3.70;;;2.70;;
7193;SDS011;3638;48.820;9.244;2022-08-05T07:48:59;3.70;;;2.80;;
7193;SDS011;3638;48.820;9.244;2022-08-05T07:51:29;6.20;;;2.80;;
7193;SDS011;3638;48.820;9.244;2022-08-05T07:53:55;3.90;;;2.80;;
7193;SDS011;3638;48.820;9.244;2022-08-05T07:56:23;6.15;;;2.97;;
7193;SDS011;3638;48.820;9.244;2022-08-05T07:58:50;5.93;;;2.90;;
7193;SDS011;3638;48.820;9.244;2022-08-05T08:01:17;4.43;;;3.10;;
7193;SDS011;3638;48.820;9.244;2022-08-05T08:03:44;3.88;;;2.55;;
7193;SDS011;3638;48.820;9.244;2022-08-05T08:06:11;3.50;;;2.63;;
7193;SDS011;3638;48.820;9.244;2022-08-05T08:08:41;4.20;;;2.90;;
7193;SDS011;3638;48.820;9.244;2022-08-05T08:11:08;3.97;;;2.63;;
7193;SDS011;3638;48.820;9.244;2022-08-05T08:13:35;5.22;;;2.60;;
7193;SDS011;3638;48.820;9.244;2022-08-05T08:16:02;4.18;;;2.50;;
7193;SDS011;3638;48.820;9.244;2022-08-05T08:18:30;6.75;;;2.60;;
7193;SDS011;3638;48.820;9.244;2022-08-05T08:20:57;3.53;;;2.40;;
7193;SDS011;3638;48.820;9.244;2022-08-05T08:23:24;4.00;;;2.03;;
7193;SDS011;3638;48.820;9.244;2022-08-05T08:25:53;3.53;;;2.00;;
7193;SDS011;3638;48.820;9.244;2022-08-05T08:28:20;2.92;;;2.10;;
7193;SDS011;3638;48.820;9.244;2022-08-05T08:30:47;1.95;;;1.85;;
7193;SDS011;3638;48.820;9.244;2022-08-05T08:33:14;2.40;;;2.08;;
7193;SDS011;3638;48.820;9.244;2022-08-05T08:35:41;2.08;;;1.80;;
7193;SDS011;3638;48.820;9.244;2022-08-05T08:38:08;3.53;;;2.25;;
7193;SDS011;3638;48.820;9.244;2022-08-05T08:40:37;2.15;;;1.95;;
7193;SDS011;3638;48.820;9.244;2022-08-05T08:43:06;2.53;;;1.90;;
7193;SDS011;3638;48.820;9.244;2022-08-05T08:45:36;3.15;;;2.10;;
7193;SDS011;3638;48.820;9.244;2022-08-05T08:48:04;2.28;;;2.08;;
7193;SDS011;3638;48.820;9.244;2022-08-05T08:50:33;2.53;;;1.90;;
7193;SDS011;3638;48.820;9.244;2022-08-05T08:53:05;4.85;;;2.20;;
7193;SDS011;3638;48.820;9.244;2022-08-05T08:55:34;3.80;;;2.10;;
7193;SDS011;3638;48.820;9.244;2022-08-05T08:58:01;3.05;;;2.10;;
7193;SDS011;3638;48.820;9.244;2022-08-05T09:00:30;3.28;;;2.00;;
7193;SDS011;3638;48.820;9.244;2022-08-05T09:02:57;3.85;;;2.22;;
7193;SDS011;3638;48.820;9.244;2022-08-05T09:05:24;3.03;;;2.08;;
7193;SDS011;3638;48.820;9.244;2022-08-05T09:07:51;2.78;;;2.40;;
7193;SDS011;3638;48.820;9.244;2022-08-05T09:10:19;5.50;;;2.20;;
7193;SDS011;3638;48.820;9.244;2022-08-05T09:12:47;2.40;;;1.77;;
7193;SDS011;3638;48.820;9.244;2022-08-05T09:15:14;2.85;;;2.00;;
7193;SDS011;3638;48.820;9.244;2022-08-05T09:17:42;2.25;;;2.05;;
7193;SDS011;3638;48.820;9.244;2022-08-05T09:20:10;3.33;;;2.13;;
7193;SDS011;3638;48.820;9.244;2022-08-05T09:25:36;6.20;;;2.33;;
7193;SDS011;3638;48.820;9.244;2022-08-05T09:28:08;2.22;;;2.03;;
7193;SDS011;3638;48.820;9.244;2022-08-05T09:30:37;3.38;;;2.13;;
7193;SDS011;3638;48.820;9.244;2022-08-05T09:33:10;3.17;;;1.95;;
7193;SDS011;3638;48.820;9.244;2022-08-05T09:35:37;2.00;;;1.80;;
7193;SDS011;3638;48.820;9.244;2022-08-05T09:38:18;3.15;;;1.90;;
7193;SDS011;3638;48.820;9.244;2022-08-05T09:40:45;4.60;;;2.28;;
7193;SDS011;3638;48.820;9.244;2022-08-05T09:43:24;3.38;;;2.03;;
7193;SDS011;3638;48.820;9.244;2022-08-05T09:45:54;2.10;;;1.90;;
7193;SDS011;3638;48.820;9.244;2022-08-05T09:48:23;2.30;;;2.10;;
7193;SDS011;3638;48.820;9.244;2022-08-05T09:50:51;2.80;;;2.03;;
7193;SDS011;3638;48.820;9.244;2022-08-05T09:53:21;2.33;;;2.00;;
7193;SDS011;3638;48.820;9.244;2022-08-05T09:55:52;3.22;;;2.10;;
7193;SDS011;3638;48.820;9.244;2022-08-05T09:58:22;3.80;;;2.00;;
7193;SDS011;3638;48.820;9.244;2022-08-05T10:00:56;3.47;;;2.00;;
7193;SDS011;3638;48.820;9.244;2022-08-05T10:03:27;3.03;;;2.05;;
7193;SDS011;3638;48.820;9.244;2022-08-05T10:06:05;3.33;;;1.80;;
7193;SDS011;3638;48.820;9.244;2022-08-05T10:08:34;2.08;;;1.88;;
7193;SDS011;3638;48.820;9.244;2022-08-05T10:11:03;2.25;;;1.90;;
7193;SDS011;3638;48.820;9.244;2022-08-05T10:13:39;2.47;;;1.90;;
7193;SDS011;3638;48.820;9.244;2022-08-05T10:16:06;3.05;;;2.20;;
7193;SDS011;3638;48.820;9.244;2022-08-05T10:18:57;9.13;;;2.20;;
7193;SDS011;3638;48.820;9.244;2022-08-05T10:21:24;1.88;;;1.77;;
7193;SDS011;3638;48.820;9.244;2022-08-05T10:23:52;2.25;;;1.73;;
7193;SDS011;3638;48.820;9.244;2022-08-05T10:26:20;3.80;;;2.00;;
7193;SDS011;3638;48.820;9.244;2022-08-05T10:28:47;4.43;;;2.28;;
7193;SDS011;3638;48.820;9.244;2022-08-05T10:31:15;2.80;;;2.10;;
7193;SDS011;3638;48.820;9.244;2022-08-05T10:33:42;3.65;;;2.38;;
7193;SDS011;3638;48.820;9.244;2022-08-05T10:36:11;2.83;;;2.28;;
7193;SDS011;3638;48.820;9.244;2022-08-05T10:38:38;3.83;;;2.10;;
7193;SDS011;3638;48.820;9.244;2022-08-05T10:41:12;2.45;;;2.10;;
7193;SDS011;3638;48.820;9.244;2022-08-05T10:43:46;2.30;;;1.95;;
7193;SDS011;3638;48.820;9.244;2022-08-05T10:46:18;2.10;;;1.90;;
7193;SDS011;3638;48.820;9.244;2022-08-05T10:48:47;4.97;;;2.17;;
7193;SDS011;3638;48.820;9.244;2022-08-05T10:51:17;2.92;;;2.10;;
7193;SDS011;3638;48.820;9.244;2022-08-05T10:53:51;3.05;;;1.90;;
7193;SDS011;3638;48.820;9.244;2022-08-05T10:56:20;2.92;;;2.28;;
7193;SDS011;3638;48.820;9.244;2022-08-05T10:58:50;2.80;;;1.95;;
7193;SDS011;3638;48.820;9.244;2022-08-05T11:01:30;2.95;;;2.22;;
7193;SDS011;3638;48.820;9.244;2022-08-05T11:04:04;2.30;;;2.00;;
7193;SDS011;3638;48.820;9.244;2022-08-05T11:09:35;2.75;;;1.90;;
7193;SDS011;3638;48.820;9.244;2022-08-05T11:15:15;2.20;;;2.00;;
7193;SDS011;3638;48.820;9.244;2022-08-05T11:17:47;4.72;;;2.00;;
7193;SDS011;3638;48.820;9.244;2022-08-05T11:20:34;1.98;;;1.83;;
7193;SDS011;3638;48.820;9.244;2022-08-05T11:26:09;4.45;;;2.00;;
7193;SDS011;3638;48.820;9.244;2022-08-05T11:28:46;2.38;;;2.17;;
7193;SDS011;3638;48.820;9.244;2022-08-05T11:31:18;2.50;;;2.20;;
7193;SDS011;3638;48.820;9.244;2022-08-05T11:33:56;2.00;;;1.80;;
7193;SDS011;3638;48.820;9.244;2022-08-05T11:36:38;3.20;;;2.20;;
7193;SDS011;3638;48.820;9.244;2022-08-05T11:39:45;2.45;;;2.20;;
7193;SDS011;3638;48.820;9.244;2022-08-05T11:42:15;2.47;;;2.08;;
7193;SDS011;3638;48.820;9.244;2022-08-05T11:44:48;2.63;;;2.00;;
7193;SDS011;3638;48.820;9.244;2022-08-05T11:47:19;3.28;;;2.08;;
7193;SDS011;3638;48.820;9.244;2022-08-05T11:49:53;2.65;;;1.90;;
7193;SDS011;3638;48.820;9.244;2022-08-05T11:52:22;2.40;;;1.80;;
7193;SDS011;3638;48.820;9.244;2022-08-05T11:54:51;3.22;;;2.03;;
7193;SDS011;3638;48.820;9.244;2022-08-05T11:57:19;3.47;;;2.00;;
7193;SDS011;3638;48.820;9.244;2022-08-05T11:59:46;2.70;;;2.00;;
7193;SDS011;3638;48.820;9.244;2022-08-05T12:02:13;2.67;;;2.00;;
7193;SDS011;3638;48.820;9.244;2022-08-05T12:04:42;3.58;;;2.03;;
7193;SDS011;3638;48.820;9.244;2022-08-05T12:07:12;2.78;;;1.90;;
7193;SDS011;3638;48.820;9.244;2022-08-05T12:09:42;4.60;;;2.10;;
7193;SDS011;3638;48.820;9.244;2022-08-05T12:12:20;2.30;;;2.10;;
7193;SDS011;3638;48.820;9.244;2022-08-05T12:14:48;4.10;;;2.28;;
7193;SDS011;3638;48.820;9.244;2022-08-05T12:17:16;3.97;;;2.10;;
7193;SDS011;3638;48.820;9.244;2022-08-05T12:19:45;4.18;;;2.10;;
7193;SDS011;3638;48.820;9.244;2022-08-05T12:22:15;2.72;;;2.33;;
7193;SDS011;3638;48.820;9.244;2022-08-05T12:24:43;3.50;;;2.22;;
7193;SDS011;3638;48.820;9.244;2022-08-05T12:27:18;4.18;;;2.00;;
7193;SDS011;3638;48.820;9.244;2022-08-05T12:29:57;6.03;;;2.13;;
7193;SDS011;3638;48.820;9.244;2022-08-05T12:32:25;2.67;;;1.90;;
7193;SDS011;3638;48.820;9.244;2022-08-05T12:34:53;3.05;;;2.03;;
7193;SDS011;3638;48.820;9.244;2022-08-05T12:37:20;4.15;;;2.13;;
7193;SDS011;3638;48.820;9.244;2022-08-05T12:39:48;3.90;;;2.10;;
7193;SDS011;3638;48.820;9.244;2022-08-05T12:42:16;2.50;;;2.20;;
7193;SDS011;3638;48.820;9.244;2022-08-05T12:44:46;2.35;;;2.15;;
7193;SDS011;3638;48.820;9.244;2022-08-05T12:47:24;4.13;;;2.20;;
7193;SDS011;3638;48.820;9.244;2022-08-05T12:49:52;2.38;;;2.17;;
7193;SDS011;3638;48.820;9.244;2022-08-05T12:52:20;2.22;;;1.83;;
7193;SDS011;3638;48.820;9.244;2022-08-05T12:54:47;2.30;;;2.10;;
7193;SDS011;3638;48.820;9.244;2022-08-05T12:57:15;2.50;;;2.25;;
7193;SDS011;3638;48.820;9.244;2022-08-05T12:59:45;2.28;;;2.08;;
7193;SDS011;3638;48.820;9.244;2022-08-05T13:02:15;3.20;;;2.10;;
7193;SDS011;3638;48.820;9.244;2022-08-05T13:04:45;3.85;;;2.20;;
7193;SDS011;3638;48.820;9.244;2022-08-05T13:07:14;2.92;;;2.45;;
7193;SDS011;3638;48.820;9.244;2022-08-05T13:09:46;2.28;;;2.03;;
7193;SDS011;3638;48.820;9.244;2022-08-05T13:12:16;3.45;;;2.20;;
7193;SDS011;3638;48.820;9.244;2022-08-05T13:14:47;4.35;;;2.33;;
7193;SDS011;3638;48.820;9.244;2022-08-05T13:17:17;4.03;;;2.20;;
7193;SDS011;3638;48.820;9.244;2022-08-05T13:19:59;2.53;;;2.33;;
7193;SDS011;3638;48.820;9.244;2022-08-05T13:22:29;3.95;;;2.28;;
7193;SDS011;3638;48.820;9.244;2022-08-05T13:24:57;3.45;;;2.60;;
7193;SDS011;3638;48.820;9.244;2022-08-05T13:27:26;4.00;;;2.53;;
7193;SDS011;3638;48.820;9.244;2022-08-05T13:29:57;2.88;;;2.45;;
7193;SDS011;3638;48.820;9.244;2022-08-05T13:32:24;3.50;;;2.20;;
7193;SDS011;3638;48.820;9.244;2022-08-05T13:34:51;3.03;;;2.25;;
7193;SDS011;3638;48.820;9.244;2022-08-05T13:37:19;4.72;;;2.08;;
7193;SDS011;3638;48.820;9.244;2022-08-05T13:39:48;2.67;;;2.10;;
7193;SDS011;3638;48.820;9.244;2022-08-05T13:42:17;2.40;;;2.20;;
7193;SDS011;3638;48.820;9.244;2022-08-05T13:44:45;3.03;;;2.50;;
7193;SDS011;3638;48.820;9.244;2022-08-05T13:47:17;2.83;;;2.40;;
7193;SDS011;3638;48.820;9.244;2022-08-05T13:49:44;2.10;;;1.90;;
7193;SDS011;3638;48.820;9.244;2022-08-05T13:52:11;3.92;;;2.05;;
7193;SDS011;3638;48.820;9.244;2022-08-05T13:54:40;3.90;;;2.28;;
7193;SDS011;3638;48.820;9.244;2022-08-05T13:57:08;2.88;;;2.13;;
7193;SDS011;3638;48.820;9.244;2022-08-05T13:59:37;3.25;;;2.60;;
7193;SDS011;3638;48.820;9.244;2022-08-05T14:02:05;4.78;;;2.33;;
7193;SDS011;3638;48.820;9.244;2022-08-05T14:04:35;4.38;;;2.25;;
7193;SDS011;3638;48.820;9.244;2022-08-05T14:07:23;3.92;;;2.35;;
7193;SDS011;3638;48.820;9.244;2022-08-05T14:09:51;3.70;;;2.42;;
7193;SDS011;3638;48.820;9.244;2022-08-05T14:12:18;4.70;;;2.55;;
7193;SDS011;3638;48.820;9.244;2022-08-05T14:14:46;6.25;;;2.30;;
7193;SDS011;3638;48.820;9.244;2022-08-05T14:17:13;3.85;;;2.22;;
7193;SDS011;3638;48.820;9.244;2022-08-05T14:19:42;2.55;;;2.20;;
7193;SDS011;3638;48.820;9.244;2022-08-05T14:22:10;5.03;;;2.28;;
7193;SDS011;3638;48.820;9.244;2022-08-05T14:24:37;4.03;;;2.38;;
7193;SDS011;3638;48.820;9.244;2022-08-05T14:27:04;4.20;;;2.33;;
7193;SDS011;3638;48.820;9.244;2022-08-05T14:29:32;2.22;;;2.10;;
7193;SDS011;3638;48.820;9.244;2022-08-05T14:31:59;3.15;;;2.20;;
7193;SDS011;3638;48.820;9.244;2022-08-05T14:34:26;2.78;;;2.33;;
7193;SDS011;3638;48.820;9.244;2022-08-05T14:36:55;3.45;;;2.40;;
7193;SDS011;3638;48.820;9.244;2022-08-05T14:39:21;3.85;;;2.13;;
7193;SDS011;3638;48.820;9.244;2022-08-05T14:41:49;4.00;;;2.20;;
7193;SDS011;3638;48.820;9.244;2022-08-05T14:44:16;4.60;;;2.28;;
7193;SDS011;3638;48.820;9.244;2022-08-05T14:46:44;3.72;;;2.20;;
7193;SDS011;3638;48.820;9.244;2022-08-05T14:49:11;2.58;;;2.10;;
7193;SDS011;3638;48.820;9.244;2022-08-05T14:51:38;3.45;;;2.30;;
7193;SDS011;3638;48.820;9.244;2022-08-05T14:54:07;3.85;;;2.75;;
7193;SDS011;3638;48.820;9.244;2022-08-05T14:56:34;4.03;;;2.42;;
7193;SDS011;3638;48.820;9.244;2022-08-05T14:59:01;4.40;;;2.67;;
7193;SDS011;3638;48.820;9.244;2022-08-05T15:01:28;3.22;;;2.58;;
7193;SDS011;3638;48.820;9.244;2022-08-05T15:03:55;7.57;;;3.03;;
7193;SDS011;3638;48.820;9.244;2022-08-05T15:06:22;3.63;;;2.88;;
7193;SDS011;3638;48.820;9.244;2022-08-05T15:08:49;2.83;;;2.30;;
7193;SDS011;3638;48.820;9.244;2022-08-05T15:11:18;3.50;;;2.50;;
7193;SDS011;3638;48.820;9.244;2022-08-05T15:13:45;4.68;;;3.10;;
7193;SDS011;3638;48.820;9.244;2022-08-05T15:16:12;3.70;;;2.85;;
7193;SDS011;3638;48.820;9.244;2022-08-05T15:18:39;5.05;;;3.17;;
7193;SDS011;3638;48.820;9.244;2022-08-05T15:21:06;6.15;;;3.40;;
7193;SDS011;3638;48.820;9.244;2022-08-05T15:23:34;6.40;;;3.03;;
7193;SDS011;3638;48.820;9.244;2022-08-05T15:26:01;26.55;;;6.72;;
7193;SDS011;3638;48.820;9.244;2022-08-05T15:28:30;10.23;;;4.50;;
7193;SDS011;3638;48.820;9.244;2022-08-05T15:30:57;7.68;;;4.10;;
7193;SDS011;3638;48.820;9.244;2022-08-05T15:33:23;8.23;;;4.45;;
7193;SDS011;3638;48.820;9.244;2022-08-05T15:35:51;6.93;;;4.55;;
7193;SDS011;3638;48.820;9.244;2022-08-05T15:38:18;4.60;;;4.20;;
7193;SDS011;3638;48.820;9.244;2022-08-05T15:40:46;6.38;;;3.95;;